Time;durP1;ratioP1;P1;durP2;ratioP2;P2;SDS_P1;SDS_P2;PMS_P1;PMS_P2;Temp;Humidity;BMP_temperature;BMP_pressure;BME280_temperature;BME280_humidity;BME280_pressure;Samples;Min_cycle;Max_cycle;Signal;HPM_P1;HPM_P2
2022/07/05 00:00:05;;;;;;;1.63;0.80;;;18.60;99.90;;;;;;5079861;28;20509;-88
2022/07/05 00:02:32;;;;;;;0.83;0.80;;;18.50;99.90;;;;;;5081308;28;20860;-88
2022/07/05 00:04:59;;;;;;;0.83;0.73;;;18.50;99.90;;;;;;5081652;28;20490;-87
2022/07/05 00:07:26;;;;;;;0.70;0.70;;;18.50;99.90;;;;;;5084767;28;20451;-88
2022/07/05 00:09:56;;;;;;;1.70;0.90;;;18.50;99.90;;;;;;5083561;28;20462;-88
2022/07/05 00:12:24;;;;;;;0.77;0.77;;;18.50;99.90;;;;;;5084627;28;20833;-88
2022/07/05 00:14:51;;;;;;;1.40;0.80;;;18.60;99.90;;;;;;5083900;28;20459;-88
2022/07/05 00:17:20;;;;;;;0.90;0.80;;;18.60;99.90;;;;;;5081033;28;20467;-88
2022/07/05 00:19:47;;;;;;;3.43;1.00;;;18.70;99.90;;;;;;5080569;28;20472;-88
2022/07/05 00:22:14;;;;;;;0.83;0.83;;;18.70;99.90;;;;;;5080270;28;20485;-89
2022/07/05 00:24:41;;;;;;;1.13;1.03;;;18.80;99.90;;;;;;5080907;28;20455;-88
2022/07/05 00:27:08;;;;;;;1.00;0.80;;;18.80;99.90;;;;;;5082472;28;20466;-88
2022/07/05 00:29:35;;;;;;;0.70;0.70;;;18.80;99.90;;;;;;5082358;28;20467;-88
2022/07/05 00:32:02;;;;;;;1.10;1.00;;;18.80;99.90;;;;;;5079690;28;20505;-88
2022/07/05 00:34:30;;;;;;;0.80;0.80;;;18.80;99.90;;;;;;5085260;28;20519;-88
2022/07/05 00:36:58;;;;;;;0.90;0.70;;;18.80;99.90;;;;;;5080424;28;20466;-88
2022/07/05 00:39:26;;;;;;;1.40;0.70;;;18.80;99.90;;;;;;5082573;28;20737;-88
2022/07/05 00:41:53;;;;;;;0.70;0.60;;;18.80;99.90;;;;;;5083479;28;20562;-88
2022/07/05 00:44:30;;;;;;;0.70;0.70;;;18.70;99.90;;;;;;5080690;28;20498;-88
2022/07/05 00:46:57;;;;;;;1.80;0.80;;;18.80;99.90;;;;;;5081029;28;20767;-88
2022/07/05 00:49:24;;;;;;;0.40;0.40;;;18.80;99.90;;;;;;5084210;28;20457;-88
2022/07/05 00:51:53;;;;;;;2.73;0.80;;;18.70;99.90;;;;;;5084217;28;20875;-88
2022/07/05 00:54:20;;;;;;;1.37;0.60;;;18.70;99.90;;;;;;5094309;28;20484;-88
2022/07/05 00:56:47;;;;;;;0.70;0.50;;;18.70;99.90;;;;;;5092928;28;20481;-88
2022/07/05 00:59:14;;;;;;;0.60;0.60;;;18.80;99.90;;;;;;5080177;28;20472;-88
2022/07/05 01:01:41;;;;;;;0.60;0.50;;;18.80;99.90;;;;;;5082255;28;20454;-88
2022/07/05 01:04:08;;;;;;;1.43;0.57;;;18.70;99.90;;;;;;5079727;28;20494;-88
2022/07/05 01:06:35;;;;;;;0.60;0.50;;;18.60;99.90;;;;;;5082005;28;20462;-88
2022/07/05 01:09:04;;;;;;;0.60;0.60;;;18.60;99.90;;;;;;5077909;28;20468;-88
2022/07/05 01:11:31;;;;;;;0.63;0.60;;;18.60;99.90;;;;;;5080957;28;20562;-88
2022/07/05 01:14:00;;;;;;;0.60;0.50;;;18.50;99.90;;;;;;5081215;28;20782;-88
2022/07/05 01:16:27;;;;;;;0.50;0.50;;;18.50;99.90;;;;;;5080624;28;20876;-88
2022/07/05 01:18:55;;;;;;;0.97;0.93;;;18.50;99.90;;;;;;5077037;28;20513;-88
2022/07/05 01:21:24;;;;;;;0.50;0.50;;;18.50;99.90;;;;;;5078436;28;20987;-88
2022/07/05 01:23:52;;;;;;;0.73;0.60;;;18.50;99.90;;;;;;5083086;28;20520;-88
2022/07/05 01:26:20;;;;;;;0.70;0.60;;;18.50;99.90;;;;;;5078731;28;20471;-88
2022/07/05 01:28:47;;;;;;;2.03;0.40;;;18.40;99.90;;;;;;5078773;28;20499;-88
2022/07/05 01:31:14;;;;;;;0.50;0.40;;;18.40;99.90;;;;;;5081881;28;20839;-88
2022/07/05 01:33:41;;;;;;;1.10;0.57;;;18.40;99.90;;;;;;5081050;28;20463;-88
2022/07/05 01:36:11;;;;;;;0.50;0.40;;;18.30;99.90;;;;;;5079966;28;20547;-88
2022/07/05 01:38:39;;;;;;;0.40;0.40;;;18.30;99.90;;;;;;5082489;28;20829;-88
2022/07/05 01:41:09;;;;;;;0.53;0.40;;;18.30;99.90;;;;;;5080176;28;20552;-88
2022/07/05 01:43:36;;;;;;;0.43;0.43;;;18.30;99.90;;;;;;5081238;28;20581;-88
2022/07/05 01:46:06;;;;;;;0.50;0.40;;;18.30;99.90;;;;;;5078228;28;20467;-88
2022/07/05 01:48:35;;;;;;;0.50;0.40;;;18.30;99.90;;;;;;5082007;28;20462;-88
2022/07/05 01:51:06;;;;;;;0.63;0.30;;;18.20;99.90;;;;;;5079639;28;20503;-88
2022/07/05 01:53:34;;;;;;;0.60;0.40;;;18.20;99.90;;;;;;5080766;28;20473;-88
2022/07/05 01:56:02;;;;;;;0.40;0.30;;;18.00;99.90;;;;;;5082145;28;20855;-88
2022/07/05 01:58:31;;;;;;;0.50;0.37;;;17.80;99.90;;;;;;5082283;28;20537;-87
2022/07/05 02:01:00;;;;;;;1.33;0.50;;;17.70;99.90;;;;;;5081572;28;20671;-87
2022/07/05 02:03:28;;;;;;;0.70;0.50;;;17.70;99.90;;;;;;5078524;28;20493;-87
2022/07/05 02:05:55;;;;;;;0.50;0.50;;;17.70;99.90;;;;;;5079826;28;20474;-87
2022/07/05 02:08:22;;;;;;;0.40;0.33;;;17.60;99.90;;;;;;5080774;28;21049;-87
2022/07/05 02:10:49;;;;;;;0.93;0.43;;;17.50;99.90;;;;;;5079813;28;20515;-87
2022/07/05 02:13:16;;;;;;;0.60;0.60;;;17.40;99.90;;;;;;5078271;28;20462;-87
2022/07/05 02:15:44;;;;;;;2.60;0.50;;;17.40;99.90;;;;;;5082277;28;20516;-87
2022/07/05 02:18:11;;;;;;;0.40;0.30;;;17.40;99.90;;;;;;5075393;28;20531;-87
2022/07/05 02:20:40;;;;;;;0.60;0.40;;;17.30;99.90;;;;;;5082615;28;20458;-87
2022/07/05 02:23:08;;;;;;;0.40;0.40;;;17.30;99.90;;;;;;5079129;28;20485;-87
2022/07/05 02:25:35;;;;;;;0.50;0.40;;;17.30;99.90;;;;;;5082335;28;21117;-87
2022/07/05 02:28:02;;;;;;;0.60;0.50;;;17.30;99.90;;;;;;5079545;28;20462;-87
2022/07/05 02:30:29;;;;;;;0.60;0.40;;;17.30;99.90;;;;;;5082036;28;20646;-87
2022/07/05 02:32:58;;;;;;;0.50;0.50;;;17.30;99.90;;;;;;5082650;28;20520;-88
2022/07/05 02:35:25;;;;;;;0.60;0.50;;;17.30;99.90;;;;;;5079902;28;20844;-87
2022/07/05 02:37:52;;;;;;;0.57;0.30;;;17.20;99.90;;;;;;5084796;28;20466;-87
2022/07/05 02:40:19;;;;;;;0.50;0.50;;;17.20;99.90;;;;;;5078986;28;20493;-88
2022/07/05 02:42:46;;;;;;;0.50;0.40;;;17.20;99.90;;;;;;5081113;28;20552;-88
2022/07/05 02:45:13;;;;;;;0.40;0.30;;;17.20;99.90;;;;;;5078894;28;20781;-88
2022/07/05 02:47:40;;;;;;;0.50;0.40;;;17.20;99.90;;;;;;5082273;28;20555;-87
2022/07/05 02:50:11;;;;;;;1.00;0.50;;;17.20;99.90;;;;;;5077481;28;20462;-87
2022/07/05 02:52:38;;;;;;;0.50;0.50;;;17.20;99.90;;;;;;5082064;28;20695;-87
2022/07/05 02:55:06;;;;;;;0.40;0.40;;;17.20;99.90;;;;;;5079544;28;20628;-87
2022/07/05 02:57:33;;;;;;;1.33;0.70;;;17.10;99.90;;;;;;5082060;28;20466;-87
2022/07/05 03:00:00;;;;;;;0.80;0.50;;;17.10;99.90;;;;;;5081804;28;20539;-88
2022/07/05 03:02:27;;;;;;;1.20;0.50;;;17.10;99.90;;;;;;5076920;28;20565;-88
2022/07/05 03:04:54;;;;;;;1.57;0.40;;;17.00;99.90;;;;;;5080126;28;20530;-87
2022/07/05 03:07:22;;;;;;;0.50;0.40;;;16.90;99.90;;;;;;5078754;28;20461;-88
2022/07/05 03:09:49;;;;;;;0.40;0.33;;;16.90;99.90;;;;;;5079487;28;21056;-88
2022/07/05 03:12:16;;;;;;;0.40;0.40;;;16.90;99.90;;;;;;5078317;28;20519;-88
2022/07/05 03:14:43;;;;;;;0.50;0.40;;;16.90;99.90;;;;;;5082851;28;20531;-87
2022/07/05 03:17:10;;;;;;;0.90;0.57;;;16.70;99.90;;;;;;5078852;28;20459;-88
2022/07/05 03:19:37;;;;;;;0.40;0.40;;;16.70;99.90;;;;;;5080313;28;20749;-87
2022/07/05 03:22:04;;;;;;;0.50;0.40;;;16.70;99.90;;;;;;5072121;28;20467;-87
2022/07/05 03:24:33;;;;;;;1.43;0.50;;;16.70;99.90;;;;;;5080474;28;21031;-87
2022/07/05 03:27:00;;;;;;;0.53;0.50;;;16.80;99.90;;;;;;5081328;28;21460;-87
2022/07/05 03:29:27;;;;;;;0.47;0.47;;;16.70;99.90;;;;;;5080137;28;20486;-87
2022/07/05 03:31:54;;;;;;;0.50;0.50;;;16.60;99.90;;;;;;5078210;28;20803;-86
2022/07/05 03:34:21;;;;;;;0.70;0.70;;;16.60;99.90;;;;;;5078166;28;20850;-86
2022/07/05 03:36:48;;;;;;;1.03;0.50;;;16.60;99.90;;;;;;5077504;28;20877;-86
2022/07/05 03:39:15;;;;;;;0.47;0.37;;;16.60;99.90;;;;;;5074544;28;20501;-87
2022/07/05 03:41:43;;;;;;;1.67;0.50;;;16.60;99.90;;;;;;5080589;28;20925;-87
2022/07/05 03:44:10;;;;;;;0.50;0.40;;;16.60;99.90;;;;;;5077508;28;20539;-86
2022/07/05 03:46:37;;;;;;;0.40;0.40;;;16.60;99.90;;;;;;5081168;28;21127;-87
2022/07/05 03:49:04;;;;;;;0.40;0.40;;;16.60;99.90;;;;;;5083684;28;20472;-86
2022/07/05 03:51:31;;;;;;;2.37;0.70;;;16.60;99.90;;;;;;5081984;28;20890;-86
2022/07/05 03:53:58;;;;;;;0.43;0.43;;;16.60;99.90;;;;;;5082285;28;20831;-86
2022/07/05 03:56:25;;;;;;;3.90;0.50;;;16.60;99.90;;;;;;5081810;28;20542;-87
2022/07/05 03:58:53;;;;;;;0.60;0.30;;;16.60;99.90;;;;;;5080657;28;20474;-87
2022/07/05 04:01:20;;;;;;;0.50;0.40;;;16.60;99.90;;;;;;5078417;28;20458;-87
2022/07/05 04:03:47;;;;;;;0.40;0.20;;;16.50;99.90;;;;;;5080900;28;20514;-86
2022/07/05 04:06:14;;;;;;;0.80;0.50;;;16.50;99.90;;;;;;5075814;28;20960;-87
2022/07/05 04:08:41;;;;;;;0.73;0.50;;;16.50;99.90;;;;;;5079628;28;20875;-87
2022/07/05 04:11:09;;;;;;;0.40;0.30;;;16.60;99.90;;;;;;5076161;28;20531;-87
2022/07/05 04:13:37;;;;;;;0.40;0.23;;;16.60;99.90;;;;;;5073608;28;20542;-87
2022/07/05 04:16:06;;;;;;;0.40;0.30;;;16.60;99.90;;;;;;5081307;28;20927;-87
2022/07/05 04:18:33;;;;;;;0.63;0.37;;;16.50;99.90;;;;;;5074972;28;20880;-88
2022/07/05 04:21:00;;;;;;;0.40;0.40;;;16.60;99.90;;;;;;5079415;28;20466;-87
2022/07/05 04:23:27;;;;;;;0.50;0.40;;;16.60;99.90;;;;;;5076616;28;20490;-87
2022/07/05 04:25:54;;;;;;;0.40;0.30;;;16.60;99.90;;;;;;5075006;28;20474;-87
2022/07/05 04:28:21;;;;;;;0.30;0.20;;;16.60;99.90;;;;;;5073961;28;20470;-87
2022/07/05 04:30:48;;;;;;;0.40;0.30;;;16.60;99.90;;;;;;5077454;28;20470;-87
2022/07/05 04:33:17;;;;;;;0.30;0.30;;;16.70;99.90;;;;;;5073103;28;20455;-88
2022/07/05 04:35:44;;;;;;;0.40;0.30;;;16.60;99.90;;;;;;5076353;28;21266;-87
2022/07/05 04:38:11;;;;;;;1.13;0.50;;;16.70;99.90;;;;;;5074458;28;20470;-87
2022/07/05 04:40:38;;;;;;;0.50;0.30;;;16.70;99.90;;;;;;5073889;28;20467;-87
2022/07/05 04:43:05;;;;;;;0.40;0.30;;;16.70;99.90;;;;;;5079556;28;20530;-87
2022/07/05 04:45:32;;;;;;;0.43;0.30;;;16.70;99.90;;;;;;5085325;28;20470;-87
2022/07/05 04:47:59;;;;;;;0.70;0.30;;;16.70;99.90;;;;;;5096880;28;20460;-88
2022/07/05 04:50:28;;;;;;;0.40;0.30;;;16.60;99.90;;;;;;5078874;28;20520;-88
2022/07/05 04:52:55;;;;;;;0.47;0.30;;;16.70;99.90;;;;;;5082715;28;20546;-88
2022/07/05 04:55:22;;;;;;;1.67;0.40;;;16.70;99.90;;;;;;5079241;28;20454;-88
2022/07/05 04:57:49;;;;;;;0.37;0.20;;;16.70;99.90;;;;;;5081175;28;20820;-88
2022/07/05 05:00:16;;;;;;;0.40;0.30;;;16.70;99.90;;;;;;5076545;28;20487;-88
2022/07/05 05:02:43;;;;;;;0.40;0.30;;;16.70;99.90;;;;;;5076356;28;20846;-88
2022/07/05 05:05:10;;;;;;;0.43;0.30;;;16.70;99.90;;;;;;5074818;28;20856;-88
2022/07/05 05:07:42;;;;;;;2.67;0.40;;;16.70;99.90;;;;;;5079387;28;20601;-88
2022/07/05 05:10:10;;;;;;;0.50;0.30;;;16.70;99.90;;;;;;5078700;28;20851;-89
2022/07/05 05:12:37;;;;;;;0.40;0.30;;;16.70;99.90;;;;;;5077847;28;20909;-88
2022/07/05 05:15:08;;;;;;;0.70;0.60;;;16.70;99.90;;;;;;5077168;28;20481;-86
2022/07/05 05:17:39;;;;;;;0.80;0.40;;;16.80;99.90;;;;;;5070622;28;20490;-87
2022/07/05 05:20:10;;;;;;;0.60;0.60;;;16.80;99.90;;;;;;5080676;28;20532;-86
2022/07/05 05:22:39;;;;;;;3.27;0.50;;;16.80;99.90;;;;;;5078552;28;20567;-86
2022/07/05 05:25:06;;;;;;;0.60;0.40;;;16.90;99.90;;;;;;5076062;28;21040;-86
2022/07/05 05:27:33;;;;;;;0.40;0.30;;;16.90;99.90;;;;;;5075399;28;20479;-86
2022/07/05 05:30:00;;;;;;;0.47;0.30;;;16.90;99.90;;;;;;5074160;28;20466;-86
2022/07/05 05:32:27;;;;;;;1.07;0.53;;;16.90;99.90;;;;;;5076262;28;20494;-88
2022/07/05 05:34:54;;;;;;;0.60;0.40;;;16.90;99.90;;;;;;5071422;28;20764;-86
2022/07/05 05:37:21;;;;;;;0.40;0.30;;;16.80;99.90;;;;;;5076170;28;20854;-87
2022/07/05 05:39:49;;;;;;;0.47;0.40;;;16.80;99.90;;;;;;5077971;28;20490;-87
2022/07/05 05:42:17;;;;;;;0.70;0.70;;;16.90;99.90;;;;;;5075444;28;20455;-87
2022/07/05 05:44:44;;;;;;;0.30;0.30;;;16.90;99.90;;;;;;5068204;28;20565;-85
2022/07/05 05:47:11;;;;;;;0.40;0.33;;;16.90;99.90;;;;;;5077766;28;20467;-87
2022/07/05 05:49:38;;;;;;;0.40;0.30;;;16.90;99.90;;;;;;5076768;28;20447;-86
2022/07/05 05:52:05;;;;;;;0.40;0.40;;;16.90;99.90;;;;;;5080548;28;20853;-86
2022/07/05 05:54:32;;;;;;;0.50;0.40;;;16.90;99.90;;;;;;5080419;28;20987;-87
2022/07/05 05:57:01;;;;;;;0.60;0.40;;;16.90;99.90;;;;;;5080852;28;20835;-87
2022/07/05 05:59:27;;;;;;;0.50;0.40;;;16.90;99.90;;;;;;5077657;28;20502;-87
2022/07/05 06:01:54;;;;;;;0.60;0.40;;;16.90;99.90;;;;;;5072784;28;20520;-86
2022/07/05 06:04:22;;;;;;;0.40;0.40;;;16.90;99.90;;;;;;5081368;28;20514;-86
2022/07/05 06:06:49;;;;;;;1.33;0.50;;;17.00;99.90;;;;;;5080077;28;20459;-87
2022/07/05 06:09:16;;;;;;;0.60;0.50;;;17.00;99.90;;;;;;5082036;28;20450;-86
2022/07/05 06:11:43;;;;;;;0.40;0.40;;;16.90;99.90;;;;;;5075114;28;20876;-86
2022/07/05 06:14:12;;;;;;;0.40;0.40;;;17.00;99.90;;;;;;5082319;28;20997;-87
2022/07/05 06:16:39;;;;;;;0.60;0.50;;;16.90;99.90;;;;;;5080586;28;20553;-88
2022/07/05 06:19:06;;;;;;;0.60;0.50;;;17.00;99.90;;;;;;5077893;28;21114;-86
2022/07/05 06:21:33;;;;;;;1.40;0.50;;;17.00;99.90;;;;;;5071285;28;20503;-87
2022/07/05 06:24:00;;;;;;;0.50;0.50;;;17.00;99.90;;;;;;5081510;28;20486;-86
2022/07/05 06:26:27;;;;;;;0.50;0.40;;;17.10;99.90;;;;;;5079648;28;20554;-87
2022/07/05 06:28:54;;;;;;;0.50;0.50;;;17.20;99.90;;;;;;5077655;28;20469;-87
2022/07/05 06:31:22;;;;;;;1.20;0.60;;;17.20;99.90;;;;;;5078054;28;20503;-86
2022/07/05 06:33:49;;;;;;;0.77;0.60;;;17.30;99.90;;;;;;5082339;28;20474;-86
2022/07/05 06:36:16;;;;;;;0.57;0.53;;;17.40;99.90;;;;;;5077298;28;20490;-86
2022/07/05 06:38:43;;;;;;;1.17;0.60;;;17.40;99.90;;;;;;5082594;28;20474;-86
2022/07/05 06:41:10;;;;;;;0.60;0.60;;;17.40;99.90;;;;;;5078196;28;20524;-85
2022/07/05 06:43:37;;;;;;;0.53;0.53;;;17.40;99.90;;;;;;5081091;28;20485;-86
2022/07/05 06:46:04;;;;;;;0.63;0.63;;;17.40;99.90;;;;;;5077998;28;20516;-86
2022/07/05 06:48:32;;;;;;;0.70;0.60;;;17.50;99.90;;;;;;5069538;28;20488;-86
2022/07/05 06:50:59;;;;;;;0.90;0.67;;;17.60;99.90;;;;;;5074953;28;20462;-86
2022/07/05 06:53:26;;;;;;;1.23;1.07;;;17.70;99.90;;;;;;5080524;28;20442;-87
2022/07/05 06:55:53;;;;;;;2.20;0.70;;;17.70;99.90;;;;;;5082472;28;20486;-86
2022/07/05 06:58:20;;;;;;;0.80;0.80;;;17.90;99.90;;;;;;5079539;28;20537;-87
2022/07/05 07:00:47;;;;;;;0.80;0.70;;;18.00;99.90;;;;;;5082092;28;20914;-87
2022/07/05 07:03:14;;;;;;;0.70;0.70;;;18.00;99.90;;;;;;5075134;28;20458;-86
2022/07/05 07:05:43;;;;;;;1.23;0.87;;;18.00;99.90;;;;;;5083943;28;20497;-88
2022/07/05 07:10:54;;;;;;;1.20;0.53;;;18.40;99.90;;;;;;5079035;28;20498;-87
2022/07/05 07:13:21;;;;;;;0.60;0.60;;;18.70;99.90;;;;;;5082678;28;20446;-87
2022/07/05 07:15:48;;;;;;;0.50;0.50;;;18.70;99.90;;;;;;5077060;28;20881;-87
2022/07/05 07:18:15;;;;;;;0.57;0.57;;;18.80;99.90;;;;;;5072915;28;21176;-86
2022/07/05 07:20:43;;;;;;;1.33;0.70;;;18.90;99.90;;;;;;5072761;28;20465;-86
2022/07/05 07:23:10;;;;;;;0.60;0.50;;;19.00;99.90;;;;;;5086791;28;20453;-86
2022/07/05 07:25:37;;;;;;;1.23;0.70;;;18.80;99.90;;;;;;5081694;28;20964;-87
2022/07/05 07:28:05;;;;;;;0.70;0.63;;;19.00;99.90;;;;;;5085559;28;20490;-86
2022/07/05 07:30:32;;;;;;;3.37;0.80;;;19.10;99.90;;;;;;5082837;28;20476;-85
2022/07/05 07:33:00;;;;;;;0.60;0.60;;;19.20;99.90;;;;;;5085710;28;20519;-85
2022/07/05 07:35:27;;;;;;;3.13;0.60;;;19.20;99.90;;;;;;5086406;28;20450;-86
2022/07/05 07:37:55;;;;;;;0.60;0.60;;;19.00;99.90;;;;;;5089805;28;20447;-86
2022/07/05 07:40:23;;;;;;;0.70;0.70;;;19.00;99.90;;;;;;5086327;28;20493;-86
2022/07/05 07:42:50;;;;;;;0.60;0.60;;;19.10;99.90;;;;;;5089347;28;20893;-86
2022/07/05 07:45:17;;;;;;;0.60;0.60;;;19.30;99.90;;;;;;5084695;28;20490;-86
2022/07/05 07:47:44;;;;;;;0.57;0.50;;;19.40;99.90;;;;;;5081125;28;20482;-85
2022/07/05 07:50:11;;;;;;;0.60;0.60;;;19.30;99.90;;;;;;5077883;28;20473;-86
2022/07/05 07:52:38;;;;;;;0.50;0.50;;;19.10;99.90;;;;;;5079390;28;20547;-86
2022/07/05 07:55:07;;;;;;;0.93;0.87;;;19.20;99.90;;;;;;5085755;28;20451;-85
2022/07/05 07:57:35;;;;;;;0.93;0.80;;;19.20;99.90;;;;;;5081124;28;20477;-86
2022/07/05 08:00:03;;;;;;;0.67;0.50;;;19.30;99.90;;;;;;5081728;28;20493;-85
2022/07/05 08:02:30;;;;;;;0.60;0.50;;;19.20;99.90;;;;;;5078011;28;20861;-86
2022/07/05 08:04:58;;;;;;;0.60;0.53;;;19.40;99.90;;;;;;5083480;28;20541;-86
2022/07/05 08:07:25;;;;;;;0.60;0.60;;;19.50;99.90;;;;;;5074412;28;20557;-87
2022/07/05 08:09:53;;;;;;;0.50;0.40;;;19.40;99.90;;;;;;5079230;28;20512;-87
2022/07/05 08:12:21;;;;;;;0.50;0.47;;;19.60;99.90;;;;;;5081468;28;20619;-87
2022/07/05 08:14:48;;;;;;;2.20;0.80;;;19.90;99.90;;;;;;5083114;28;20537;-87
2022/07/05 08:17:16;;;;;;;0.50;0.50;;;20.10;99.90;;;;;;5076636;28;20459;-87
2022/07/05 08:22:27;;;;;;;0.70;0.50;;;20.30;99.90;;;;;;5080437;28;20897;-87
2022/07/05 08:24:54;;;;;;;0.57;0.57;;;20.40;99.90;;;;;;5085816;28;20485;-87
2022/07/05 08:27:23;;;;;;;1.23;0.70;;;20.40;99.90;;;;;;5073613;28;20477;-87
2022/07/05 08:29:50;;;;;;;0.60;0.60;;;20.70;99.90;;;;;;5082650;28;20463;-86
2022/07/05 08:32:17;;;;;;;1.10;0.60;;;21.10;99.90;;;;;;5078504;28;20463;-87
2022/07/05 08:34:45;;;;;;;0.80;0.60;;;21.00;99.90;;;;;;5085212;28;20904;-87
2022/07/05 08:37:12;;;;;;;1.40;0.60;;;21.00;99.90;;;;;;5085945;28;20851;-87
2022/07/05 08:39:39;;;;;;;0.60;0.60;;;21.00;99.90;;;;;;5077588;28;20501;-87
2022/07/05 08:42:10;;;;;;;0.67;0.67;;;20.80;99.90;;;;;;5077606;28;20910;-86
2022/07/05 08:44:40;;;;;;;2.37;0.70;;;20.60;99.90;;;;;;5081867;28;20749;-87
2022/07/05 08:47:11;;;;;;;0.50;0.50;;;20.60;99.90;;;;;;5080186;28;20465;-87
2022/07/05 08:49:40;;;;;;;0.70;0.70;;;20.60;99.90;;;;;;5080845;28;20984;-87
2022/07/05 08:52:10;;;;;;;0.87;0.80;;;20.90;99.90;;;;;;5083850;28;20466;-87
2022/07/05 08:54:38;;;;;;;0.83;0.70;;;21.40;99.90;;;;;;5083106;28;20534;-87
2022/07/05 08:57:06;;;;;;;0.77;0.70;;;21.40;99.90;;;;;;5084653;28;20450;-87
2022/07/05 08:59:33;;;;;;;0.80;0.80;;;21.40;99.90;;;;;;5079020;28;20460;-87
2022/07/05 09:02:02;;;;;;;0.70;0.60;;;21.50;99.90;;;;;;5075062;28;20455;-87
2022/07/05 09:04:32;;;;;;;0.60;0.60;;;21.50;99.90;;;;;;5078405;28;20849;-87
2022/07/05 09:07:04;;;;;;;0.63;0.63;;;21.70;99.90;;;;;;5084576;28;20459;-87
2022/07/05 09:09:34;;;;;;;1.00;0.70;;;21.80;99.90;;;;;;5079621;28;20474;-87
2022/07/05 09:12:01;;;;;;;0.80;0.80;;;21.60;99.90;;;;;;5082489;28;20819;-87
2022/07/05 09:14:28;;;;;;;0.70;0.60;;;21.70;99.90;;;;;;5082999;28;20459;-87
2022/07/05 09:16:55;;;;;;;0.70;0.67;;;21.80;99.90;;;;;;5079520;28;20961;-87
2022/07/05 09:19:23;;;;;;;0.63;0.63;;;21.80;99.90;;;;;;5080139;28;20893;-87
2022/07/05 09:22:02;;;;;;;0.60;0.60;;;22.00;99.90;;;;;;5083849;28;20458;-88
2022/07/05 09:24:30;;;;;;;0.67;0.60;;;22.20;99.90;;;;;;5078573;28;20846;-88
2022/07/05 09:27:03;;;;;;;0.50;0.50;;;22.40;99.90;;;;;;5076307;28;20549;-87
2022/07/05 09:29:31;;;;;;;1.53;1.43;;;22.40;99.90;;;;;;5077951;28;20474;-87
2022/07/05 09:31:57;;;;;;;0.80;0.80;;;22.80;99.90;;;;;;5083931;28;20466;-86
2022/07/05 09:34:27;;;;;;;0.80;0.63;;;22.90;99.90;;;;;;5074570;28;20472;-87
2022/07/05 09:36:55;;;;;;;0.70;0.70;;;23.20;99.90;;;;;;5082122;28;20459;-87
2022/07/05 09:39:39;;;;;;;0.67;0.67;;;22.90;99.90;;;;;;5080661;28;21268;-87
2022/07/05 09:42:20;;;;;;;0.87;0.80;;;22.80;99.90;;;;;;5081615;28;21013;-87
2022/07/05 09:44:48;;;;;;;0.67;0.67;;;23.10;99.90;;;;;;5083362;28;20570;-87
2022/07/05 09:47:17;;;;;;;0.70;0.70;;;23.30;99.90;;;;;;5080393;28;20468;-88
2022/07/05 09:49:47;;;;;;;0.70;0.70;;;23.20;99.90;;;;;;5074884;28;20459;-87
2022/07/05 09:52:28;;;;;;;0.70;0.70;;;23.40;99.90;;;;;;5080178;28;20462;-87
2022/07/05 09:55:05;;;;;;;0.50;0.50;;;23.40;99.90;;;;;;5075078;28;20545;-87
2022/07/05 09:57:33;;;;;;;1.10;1.00;;;23.40;99.90;;;;;;5082197;28;20483;-88
2022/07/05 10:00:03;;;;;;;1.20;0.80;;;23.60;99.90;;;;;;5082503;28;20786;-87
2022/07/05 10:02:37;;;;;;;0.80;0.80;;;23.70;99.90;;;;;;5078551;28;20459;-87
2022/07/05 10:05:13;;;;;;;0.60;0.60;;;23.60;99.90;;;;;;5078702;28;20665;-88
2022/07/05 10:07:45;;;;;;;0.70;0.70;;;23.90;99.90;;;;;;5078459;28;20531;-88
2022/07/05 10:10:13;;;;;;;0.77;0.77;;;24.00;99.90;;;;;;5080154;28;21180;-87
2022/07/05 10:12:42;;;;;;;1.33;0.70;;;23.80;99.90;;;;;;5079968;28;20455;-88
2022/07/05 10:15:11;;;;;;;0.60;0.60;;;24.10;99.90;;;;;;5078012;28;20778;-87
2022/07/05 10:17:41;;;;;;;1.13;1.03;;;24.60;99.90;;;;;;5081396;28;20455;-88
2022/07/05 10:20:20;;;;;;;0.60;0.60;;;24.60;99.90;;;;;;5076083;28;20922;-87
2022/07/05 10:22:48;;;;;;;0.77;0.77;;;24.20;99.90;;;;;;5077561;28;20828;-88
2022/07/05 10:25:15;;;;;;;0.87;0.70;;;24.10;99.90;;;;;;5078333;28;20486;-89
2022/07/05 10:27:43;;;;;;;3.47;0.70;;;24.60;99.90;;;;;;5076978;28;21360;-89
2022/07/05 10:30:12;;;;;;;0.60;0.60;;;24.60;99.90;;;;;;5082344;28;20544;-89
2022/07/05 10:32:40;;;;;;;0.70;0.70;;;25.30;99.90;;;;;;5082841;28;20918;-89
2022/07/05 10:35:09;;;;;;;0.70;0.70;;;25.60;99.90;;;;;;5088247;28;20558;-91
2022/07/05 10:37:37;;;;;;;0.80;0.70;;;25.50;99.90;;;;;;5085911;28;20821;-90
2022/07/05 10:40:06;;;;;;;0.60;0.60;;;25.20;99.90;;;;;;5091119;28;20784;-90
2022/07/05 10:42:39;;;;;;;0.90;0.90;;;25.40;99.70;;;;;;5078878;28;20519;-91
2022/07/05 10:45:27;;;;;;;1.07;0.77;;;25.00;99.20;;;;;;5080479;28;20482;-90
2022/07/05 10:48:14;;;;;;;0.80;0.73;;;25.30;99.30;;;;;;5080162;28;20447;-90
2022/07/05 10:50:51;;;;;;;2.40;1.03;;;25.50;99.90;;;;;;5073906;28;20466;-90
2022/07/05 10:53:21;;;;;;;0.90;0.80;;;25.30;98.40;;;;;;5081093;28;20450;-91
2022/07/05 10:55:54;;;;;;;0.90;0.70;;;25.10;98.80;;;;;;5085684;28;20466;-90
2022/07/05 10:58:32;;;;;;;0.80;0.77;;;24.90;99.20;;;;;;5078145;28;20463;-90
2022/07/05 11:01:44;;;;;;;0.77;0.73;;;24.90;99.90;;;;;;5087409;28;20516;-90
2022/07/05 11:04:34;;;;;;;0.60;0.60;;;24.80;99.90;;;;;;5054507;28;20508;-90
2022/07/05 11:07:01;;;;;;;1.83;0.60;;;25.00;99.90;;;;;;5081368;28;20455;-91
2022/07/05 11:09:30;;;;;;;0.83;0.83;;;24.80;99.90;;;;;;5077975;28;20458;-90
2022/07/05 11:12:06;;;;;;;0.73;0.73;;;24.80;99.90;;;;;;5084155;28;20463;-90
2022/07/05 11:14:48;;;;;;;1.00;1.00;;;25.00;99.90;;;;;;5078872;28;20466;-90
2022/07/05 11:17:34;;;;;;;0.93;0.93;;;25.40;99.80;;;;;;5082084;28;21048;-92
2022/07/05 11:20:13;;;;;;;1.63;0.60;;;25.10;99.90;;;;;;5082304;28;20874;-91
2022/07/05 11:22:42;;;;;;;0.70;0.60;;;25.20;99.90;;;;;;5084315;28;20466;-90
2022/07/05 11:25:12;;;;;;;1.83;0.80;;;25.40;99.90;;;;;;5079533;28;20577;-90
2022/07/05 11:28:06;;;;;;;1.37;0.70;;;25.20;99.90;;;;;;5080765;28;21043;-91
2022/07/05 11:30:47;;;;;;;0.80;0.80;;;25.30;99.90;;;;;;5086554;28;20447;-91
2022/07/05 11:33:31;;;;;;;1.57;1.00;;;25.60;99.90;;;;;;5088445;28;20454;-91
2022/07/05 11:35:59;;;;;;;0.97;0.90;;;25.80;99.80;;;;;;5082691;28;20583;-91
2022/07/05 11:38:26;;;;;;;0.70;0.70;;;25.90;99.90;;;;;;5083406;28;20485;-90
2022/07/05 11:40:55;;;;;;;0.70;0.57;;;26.30;99.00;;;;;;5087785;28;20475;-91
2022/07/05 11:43:28;;;;;;;0.60;0.60;;;26.50;97.00;;;;;;5085542;28;20453;-90
2022/07/05 11:45:59;;;;;;;0.97;0.70;;;26.00;97.70;;;;;;5087712;28;20987;-91
2022/07/05 11:48:28;;;;;;;0.80;0.80;;;25.20;99.50;;;;;;5082437;28;20471;-91
2022/07/05 11:50:55;;;;;;;0.60;0.60;;;24.40;99.90;;;;;;5084728;28;21112;-90
2022/07/05 11:53:30;;;;;;;0.93;0.83;;;24.60;99.90;;;;;;5077951;28;20581;-91
2022/07/05 11:56:00;;;;;;;1.13;1.03;;;24.70;99.90;;;;;;5081770;28;20515;-91
2022/07/05 11:58:32;;;;;;;0.80;0.60;;;24.70;99.90;;;;;;5076148;28;20834;-92
2022/07/05 12:01:00;;;;;;;0.83;0.83;;;25.20;99.90;;;;;;5084493;28;20605;-92
2022/07/05 12:03:27;;;;;;;0.80;0.80;;;25.00;99.90;;;;;;5075408;28;20475;-91
2022/07/05 12:05:54;;;;;;;0.70;0.70;;;25.00;99.90;;;;;;5079343;28;20490;-91
2022/07/05 12:08:21;;;;;;;1.10;0.90;;;25.40;99.90;;;;;;5084631;28;20535;-91
2022/07/05 12:13:45;;;;;;;0.70;0.70;;;25.60;99.30;;;;;;5077583;28;20457;-92
2022/07/05 12:16:13;;;;;;;0.77;0.60;;;25.10;99.50;;;;;;5079704;28;20524;-91
2022/07/05 12:18:54;;;;;;;0.60;0.60;;;25.20;99.10;;;;;;5077936;28;20878;-91
2022/07/05 12:21:22;;;;;;;1.00;1.00;;;25.60;98.70;;;;;;5084821;28;20483;-91
2022/07/05 12:23:49;;;;;;;0.80;0.80;;;25.60;99.30;;;;;;5080528;28;20539;-91
2022/07/05 12:26:18;;;;;;;0.70;0.70;;;25.70;98.90;;;;;;5075746;28;21032;-91
2022/07/05 12:28:47;;;;;;;0.83;0.83;;;26.20;99.80;;;;;;5073077;28;20635;-91
2022/07/05 12:31:22;;;;;;;0.70;0.70;;;26.60;96.40;;;;;;5082298;28;20520;-90
2022/07/05 12:33:49;;;;;;;0.80;0.80;;;26.60;95.10;;;;;;5078834;28;20470;-92
2022/07/05 12:36:18;;;;;;;0.80;0.80;;;26.60;95.20;;;;;;5082511;28;20456;-92
2022/07/05 12:38:45;;;;;;;1.53;0.67;;;26.20;94.60;;;;;;5076066;28;20497;-92
2022/07/05 12:41:12;;;;;;;1.47;0.60;;;26.20;96.10;;;;;;5084561;28;20902;-92
2022/07/05 12:43:52;;;;;;;0.80;0.80;;;26.30;96.10;;;;;;5072379;28;20540;-92
2022/07/05 12:46:19;;;;;;;1.60;0.70;;;26.50;96.40;;;;;;5081175;28;20524;-92
2022/07/05 12:48:53;;;;;;;0.80;0.80;;;26.70;95.90;;;;;;5080917;28;20464;-93
2022/07/05 12:51:33;;;;;;;0.90;0.90;;;25.70;96.00;;;;;;5082992;27;20954;-91
2022/07/05 12:59:33;;;;;;;0.70;0.70;;;26.10;95.40;;;;;;5052436;28;20484;-90
2022/07/05 13:02:00;;;;;;;0.80;0.80;;;26.20;96.70;;;;;;5077779;28;20487;-92
2022/07/05 13:04:28;;;;;;;0.73;0.73;;;26.40;97.30;;;;;;5082318;28;20591;-91
2022/07/05 13:06:57;;;;;;;0.93;0.60;;;26.50;95.70;;;;;;5074080;28;20572;-92
2022/07/05 13:09:32;;;;;;;0.80;0.80;;;26.20;96.10;;;;;;5080897;28;20463;-92